Time;durP1;ratioP1;P1;durP2;ratioP2;P2;SDS_P1;SDS_P2;PMS_P1;PMS_P2;Temp;Humidity;BMP_temperature;BMP_pressure;BME280_temperature;BME280_humidity;BME280_pressure;Samples;Min_cycle;Max_cycle;Signal;HPM_P1;HPM_P2
2022/12/21 00:01:17;;;;;;;329.33;45.47;;;8.40;99.90;;;;;;5019639;28;20049;-76
2022/12/21 00:03:45;;;;;;;302.88;45.33;;;8.40;99.90;;;;;;5017520;28;20037;-76
2022/12/21 00:06:11;;;;;;;324.73;45.05;;;8.40;99.90;;;;;;5018491;28;20491;-76
2022/12/21 00:08:41;;;;;;;273.20;43.15;;;8.40;99.90;;;;;;5033502;28;20090;-77
2022/12/21 00:11:07;;;;;;;273.85;45.33;;;8.40;99.90;;;;;;5036108;28;20514;-77
2022/12/21 00:13:33;;;;;;;315.65;45.45;;;8.40;99.90;;;;;;5038156;28;20105;-77
2022/12/21 00:16:00;;;;;;;293.48;43.65;;;8.40;99.90;;;;;;5038844;28;20497;-77
2022/12/21 00:18:26;;;;;;;317.83;44.55;;;8.40;99.90;;;;;;5038971;28;20120;-77
2022/12/21 00:20:59;;;;;;;328.17;45.15;;;8.40;99.90;;;;;;5039106;28;20051;-77
2022/12/21 00:23:25;;;;;;;294.35;44.00;;;8.40;99.90;;;;;;5035763;28;20032;-77
2022/12/21 00:25:57;;;;;;;368.42;44.60;;;8.40;99.90;;;;;;5037523;28;20040;-77
2022/12/21 00:28:23;;;;;;;403.42;47.28;;;8.40;99.90;;;;;;5038267;28;20343;-77
2022/12/21 00:30:49;;;;;;;337.05;44.22;;;8.40;99.90;;;;;;5038863;28;20127;-78
2022/12/21 00:33:18;;;;;;;287.42;39.35;;;8.40;99.90;;;;;;5036325;28;20045;-78
2022/12/21 00:35:51;;;;;;;401.65;44.90;;;8.30;99.90;;;;;;5037341;28;20036;-77
2022/12/21 00:38:18;;;;;;;430.77;43.80;;;8.30;99.90;;;;;;5037433;28;20043;-77
2022/12/21 00:40:45;;;;;;;332.33;41.80;;;8.30;99.90;;;;;;5038297;28;20390;-77
2022/12/21 00:43:11;;;;;;;410.80;47.60;;;8.20;99.90;;;;;;5033035;28;20450;-77
2022/12/21 00:45:42;;;;;;;342.63;41.95;;;8.20;99.90;;;;;;5032691;28;20182;-77
2022/12/21 00:48:08;;;;;;;318.83;42.80;;;8.10;99.90;;;;;;5038230;28;20048;-78
2022/12/21 00:50:34;;;;;;;322.75;39.20;;;8.20;99.90;;;;;;5038447;28;20059;-78
2022/12/21 00:53:00;;;;;;;287.40;38.47;;;8.20;99.90;;;;;;5038557;28;20098;-77
2022/12/21 00:55:26;;;;;;;268.15;36.28;;;8.10;99.90;;;;;;5036009;28;20398;-77
2022/12/21 00:57:52;;;;;;;292.70;38.08;;;8.10;99.90;;;;;;5036040;28;20043;-77
2022/12/21 01:00:18;;;;;;;446.38;44.53;;;8.00;99.90;;;;;;5035893;28;20044;-77
2022/12/21 01:02:44;;;;;;;284.33;37.92;;;8.00;99.90;;;;;;5034407;28;20125;-77
2022/12/21 01:05:10;;;;;;;318.42;38.72;;;8.00;99.90;;;;;;5035931;28;20131;-77
2022/12/21 01:07:36;;;;;;;247.05;34.42;;;8.00;99.90;;;;;;5033493;28;20063;-77
2022/12/21 01:10:04;;;;;;;349.55;37.38;;;7.90;99.90;;;;;;5034093;28;20051;-77
2022/12/21 01:12:30;;;;;;;279.83;35.92;;;7.90;99.90;;;;;;5041471;28;20426;-78
2022/12/21 01:14:56;;;;;;;286.73;36.95;;;7.90;99.90;;;;;;5051046;28;20084;-78
2022/12/21 01:17:22;;;;;;;258.88;34.63;;;7.90;99.90;;;;;;5043379;28;20064;-77
2022/12/21 01:19:51;;;;;;;306.02;39.92;;;7.80;99.90;;;;;;5034936;28;20048;-77
2022/12/21 01:22:17;;;;;;;353.17;40.00;;;7.80;99.90;;;;;;5031249;28;20041;-77
2022/12/21 01:24:45;;;;;;;342.90;38.47;;;7.80;99.90;;;;;;5034357;28;20090;-78
2022/12/21 01:27:11;;;;;;;204.52;30.45;;;7.70;99.90;;;;;;5053115;28;20510;-78
2022/12/21 01:29:40;;;;;;;326.60;37.88;;;7.70;99.90;;;;;;5035476;28;20051;-78
2022/12/21 01:32:06;;;;;;;278.05;33.20;;;7.70;99.90;;;;;;5053263;28;20051;-78
2022/12/21 01:34:32;;;;;;;362.17;38.60;;;7.70;99.90;;;;;;5035896;28;20033;-78
2022/12/21 01:36:57;;;;;;;222.40;32.20;;;7.60;99.90;;;;;;5033434;28;20045;-78
2022/12/21 01:39:23;;;;;;;256.02;32.53;;;7.70;99.90;;;;;;5036748;28;20455;-78
2022/12/21 01:41:53;;;;;;;253.57;33.03;;;7.60;99.90;;;;;;5034130;28;20429;-78
2022/12/21 01:44:59;;;;;;;244.05;32.65;;;7.60;99.90;;;;;;5034536;28;20089;-78
2022/12/21 01:47:30;;;;;;;292.15;36.70;;;7.50;99.90;;;;;;5029634;28;20128;-78
2022/12/21 01:50:01;;;;;;;204.13;31.42;;;7.50;99.90;;;;;;5034565;28;20040;-78
2022/12/21 01:52:28;;;;;;;243.10;31.35;;;7.50;99.90;;;;;;5033399;28;20033;-78
2022/12/21 01:55:00;;;;;;;215.43;28.75;;;7.50;99.90;;;;;;5033862;28;20032;-78
2022/12/21 01:57:32;;;;;;;280.50;33.85;;;7.40;99.90;;;;;;5033306;28;20047;-78
2022/12/21 02:00:01;;;;;;;183.30;27.58;;;7.40;99.90;;;;;;5035840;28;20078;-78
2022/12/21 02:02:46;;;;;;;244.25;33.17;;;7.40;99.90;;;;;;5033772;28;20037;-78
2022/12/21 02:05:35;;;;;;;234.55;29.45;;;7.40;99.90;;;;;;5028652;28;20036;-78
2022/12/21 02:08:03;;;;;;;201.45;29.17;;;7.30;99.90;;;;;;5035921;28;20131;-78
2022/12/21 02:10:30;;;;;;;308.55;35.55;;;7.30;99.90;;;;;;5033285;28;20598;-78
2022/12/21 02:13:01;;;;;;;198.70;28.75;;;7.30;99.90;;;;;;5039992;28;20040;-78
2022/12/21 02:15:46;;;;;;;284.25;34.30;;;7.30;99.90;;;;;;5037521;28;20098;-78
2022/12/21 02:18:53;;;;;;;428.30;41.63;;;7.20;99.90;;;;;;5048728;28;20041;-78
2022/12/21 02:21:47;;;;;;;268.80;34.08;;;7.20;99.90;;;;;;5016092;28;20047;-78
2022/12/21 02:24:33;;;;;;;343.60;36.90;;;7.20;99.90;;;;;;5033227;28;20052;-78
2022/12/21 02:27:24;;;;;;;299.38;35.67;;;7.20;99.90;;;;;;5008233;28;20413;-77
2022/12/21 02:30:04;;;;;;;400.25;42.33;;;7.20;99.90;;;;;;5039438;28;20178;-78
2022/12/21 02:32:48;;;;;;;279.48;32.85;;;7.10;99.90;;;;;;5040113;28;20059;-78
2022/12/21 02:35:49;;;;;;;323.77;37.75;;;7.20;99.90;;;;;;5042051;28;20401;-78
2022/12/21 02:38:25;;;;;;;314.33;37.15;;;7.20;99.90;;;;;;5007021;28;20399;-78
2022/12/21 02:41:17;;;;;;;306.70;36.67;;;7.10;99.90;;;;;;5034445;28;20132;-78
2022/12/21 02:44:15;;;;;;;423.45;44.70;;;7.10;99.90;;;;;;5054037;28;20506;-77
2022/12/21 02:46:59;;;;;;;344.00;39.80;;;7.20;99.90;;;;;;5028867;28;20037;-77
2022/12/21 02:49:34;;;;;;;160.00;28.23;;;7.10;99.90;;;;;;5036333;28;20029;-77
2022/12/21 02:52:20;;;;;;;386.65;40.83;;;7.20;99.90;;;;;;5031801;28;20398;-77
2022/12/21 02:54:47;;;;;;;303.65;36.67;;;7.20;99.90;;;;;;5039230;28;20028;-77
2022/12/21 02:57:13;;;;;;;341.88;38.53;;;7.10;99.90;;;;;;5034667;28;20040;-77
2022/12/21 02:59:48;;;;;;;276.15;34.30;;;7.10;99.90;;;;;;5036639;28;20037;-77
2022/12/21 03:02:23;;;;;;;378.50;41.30;;;7.20;99.90;;;;;;5034111;28;20037;-78
2022/12/21 03:05:00;;;;;;;290.45;37.90;;;7.10;99.90;;;;;;5039471;28;20070;-78
2022/12/21 03:07:40;;;;;;;285.15;36.90;;;7.10;99.90;;;;;;5037064;28;20490;-77
2022/12/21 03:10:18;;;;;;;260.77;34.28;;;7.10;99.90;;;;;;5030576;28;20051;-78
2022/12/21 03:12:57;;;;;;;295.95;38.13;;;7.10;99.90;;;;;;5055736;28;20525;-78
2022/12/21 03:15:47;;;;;;;337.58;39.72;;;7.10;99.90;;;;;;5038036;28;20075;-78
2022/12/21 03:18:44;;;;;;;255.10;36.55;;;7.10;99.90;;;;;;5032107;28;20510;-77
2022/12/21 03:21:17;;;;;;;383.08;42.55;;;7.10;99.90;;;;;;5038088;28;20063;-78
2022/12/21 03:23:57;;;;;;;260.48;37.75;;;7.10;99.90;;;;;;5036538;28;20071;-78
2022/12/21 03:26:51;;;;;;;299.08;39.63;;;7.10;99.90;;;;;;5038058;28;20582;-76
2022/12/21 03:29:22;;;;;;;262.55;38.10;;;7.10;99.90;;;;;;5036135;28;20033;-76
2022/12/21 03:31:54;;;;;;;235.45;34.30;;;7.10;99.90;;;;;;5037463;28;20506;-76
2022/12/21 03:34:26;;;;;;;275.15;38.53;;;7.10;99.90;;;;;;5039175;28;20119;-76
2022/12/21 03:37:04;;;;;;;253.02;34.67;;;7.10;99.90;;;;;;5038682;28;20094;-76
2022/12/21 03:39:33;;;;;;;286.83;37.53;;;7.10;99.90;;;;;;5043722;28;20428;-76
2022/12/21 03:42:18;;;;;;;215.88;34.78;;;7.10;99.90;;;;;;5038755;28;20351;-76
2022/12/21 03:44:50;;;;;;;224.10;33.83;;;7.00;99.90;;;;;;5038351;28;20056;-76
2022/12/21 03:47:27;;;;;;;200.35;33.10;;;7.00;99.90;;;;;;5038297;28;20127;-76
2022/12/21 03:49:57;;;;;;;262.50;35.38;;;7.00;99.90;;;;;;5033535;28;20139;-76
2022/12/21 03:52:31;;;;;;;124.63;28.17;;;7.00;99.90;;;;;;5034776;28;20140;-76
2022/12/21 03:55:14;;;;;;;278.10;36.47;;;6.90;99.90;;;;;;5037720;28;20040;-76
2022/12/21 03:57:41;;;;;;;172.10;30.13;;;6.90;99.90;;;;;;5054688;28;20041;-76
2022/12/21 04:00:10;;;;;;;293.52;36.67;;;6.90;99.90;;;;;;5063195;28;20067;-77
2022/12/21 04:02:42;;;;;;;220.98;31.48;;;6.90;99.90;;;;;;5044479;28;20029;-76
2022/12/21 04:05:18;;;;;;;149.82;28.98;;;6.90;99.90;;;;;;5034396;28;20120;-76
2022/12/21 04:07:47;;;;;;;201.15;34.00;;;6.90;99.90;;;;;;5052302;28;20040;-76
2022/12/21 04:10:15;;;;;;;212.85;34.92;;;6.90;99.90;;;;;;5040294;28;20036;-76
2022/12/21 04:12:42;;;;;;;171.00;31.20;;;6.90;99.90;;;;;;5035948;28;20037;-76
2022/12/21 04:15:23;;;;;;;153.88;29.73;;;6.90;99.90;;;;;;5029973;28;20028;-76
2022/12/21 04:17:51;;;;;;;203.63;31.58;;;6.90;99.90;;;;;;5034572;28;20049;-76
2022/12/21 04:20:24;;;;;;;229.10;33.95;;;6.80;99.90;;;;;;5037669;28;20402;-76
2022/12/21 04:28:28;;;;;;;260.80;33.38;;;6.80;99.90;;;;;;5048492;28;20076;-76
2022/12/21 04:30:56;;;;;;;351.27;40.10;;;6.80;99.90;;;;;;5025795;28;20478;-77
2022/12/21 04:33:23;;;;;;;343.92;37.78;;;6.70;99.90;;;;;;5051685;28;20097;-76
2022/12/21 04:38:38;;;;;;;413.77;38.08;;;6.70;99.90;;;;;;5053270;28;20106;-76
2022/12/21 04:41:07;;;;;;;388.48;37.53;;;6.70;99.90;;;;;;5028616;28;20119;-76
2022/12/21 04:43:40;;;;;;;448.95;45.00;;;6.60;99.90;;;;;;5037018;28;20033;-76
2022/12/21 04:46:09;;;;;;;299.23;37.08;;;6.60;99.90;;;;;;5029881;28;20028;-76
2022/12/21 04:48:35;;;;;;;293.45;37.15;;;6.60;99.90;;;;;;5037552;28;20087;-76
2022/12/21 04:51:20;;;;;;;343.50;40.28;;;6.60;99.90;;;;;;5032542;28;20040;-76
2022/12/21 04:53:47;;;;;;;294.83;37.05;;;6.60;99.90;;;;;;5033042;28;20029;-76
2022/12/21 04:56:13;;;;;;;272.35;37.38;;;6.60;99.90;;;;;;5037811;28;20509;-76
2022/12/21 04:58:39;;;;;;;249.27;37.42;;;6.60;99.90;;;;;;5033281;28;20032;-77
2022/12/21 05:01:10;;;;;;;285.98;39.10;;;6.60;99.90;;;;;;5033775;28;20036;-76
2022/12/21 05:03:40;;;;;;;320.83;40.17;;;6.60;99.90;;;;;;5036927;28;20044;-76
2022/12/21 05:06:07;;;;;;;279.45;37.13;;;6.60;99.90;;;;;;5029039;28;20044;-76
2022/12/21 05:08:33;;;;;;;334.27;38.38;;;6.60;99.90;;;;;;5036528;28;20624;-76
2022/12/21 05:11:20;;;;;;;382.58;41.97;;;6.50;99.90;;;;;;5035024;28;20052;-76
2022/12/21 05:13:47;;;;;;;271.63;33.95;;;6.50;99.90;;;;;;5032443;28;20041;-76
2022/12/21 05:16:15;;;;;;;235.40;34.10;;;6.50;99.90;;;;;;5036472;28;20036;-76
2022/12/21 05:18:42;;;;;;;307.30;36.65;;;6.50;99.90;;;;;;5036295;28;20044;-76
2022/12/21 05:21:07;;;;;;;255.63;34.20;;;6.50;99.90;;;;;;5035906;28;20115;-76
2022/12/21 05:23:33;;;;;;;270.73;33.83;;;6.50;99.90;;;;;;5036441;28;20127;-76
2022/12/21 05:26:02;;;;;;;323.27;38.88;;;6.50;99.90;;;;;;5036982;28;20507;-76
2022/12/21 05:28:29;;;;;;;408.08;41.78;;;6.50;99.90;;;;;;5037134;28;20041;-76
2022/12/21 05:30:57;;;;;;;286.27;35.20;;;6.50;99.90;;;;;;5036121;28;20045;-76
2022/12/21 05:33:23;;;;;;;324.45;39.28;;;6.60;99.90;;;;;;5053203;28;20051;-76
2022/12/21 05:35:53;;;;;;;289.58;34.25;;;6.60;99.90;;;;;;5036832;28;20036;-76
2022/12/21 05:38:19;;;;;;;304.55;36.20;;;6.60;99.90;;;;;;5036120;28;20074;-76
2022/12/21 05:40:49;;;;;;;323.60;37.08;;;6.60;99.90;;;;;;5034498;28;20504;-76
2022/12/21 05:43:16;;;;;;;298.85;36.22;;;6.60;99.90;;;;;;5033244;28;20405;-76
2022/12/21 05:45:42;;;;;;;253.98;33.25;;;6.60;99.90;;;;;;5035070;28;20044;-76
2022/12/21 05:48:08;;;;;;;394.65;41.22;;;6.60;99.90;;;;;;5036475;28;20067;-76
2022/12/21 05:50:34;;;;;;;303.65;36.05;;;6.70;99.90;;;;;;5036859;28;20379;-76
2022/12/21 05:53:02;;;;;;;240.20;32.10;;;6.60;99.90;;;;;;5035772;28;20040;-76
2022/12/21 05:55:30;;;;;;;259.42;36.28;;;6.60;99.90;;;;;;5032152;28;20033;-76
2022/12/21 05:57:56;;;;;;;361.27;38.10;;;6.60;99.90;;;;;;5074959;23;20049;-78
2022/12/21 06:00:21;;;;;;;316.77;36.70;;;6.60;99.90;;;;;;5036348;28;20144;-79
2022/12/21 06:02:47;;;;;;;293.90;36.08;;;6.60;99.90;;;;;;5031778;28;20078;-79
2022/12/21 06:05:12;;;;;;;213.52;30.25;;;6.60;99.90;;;;;;5026877;28;20482;-79
2022/12/21 06:07:38;;;;;;;335.67;37.78;;;6.60;99.90;;;;;;5050478;28;20064;-79
2022/12/21 06:10:05;;;;;;;318.67;35.35;;;6.60;99.90;;;;;;5034393;28;20045;-79
2022/12/21 06:12:32;;;;;;;310.60;38.45;;;6.60;99.90;;;;;;5032859;28;20057;-79
2022/12/21 06:14:57;;;;;;;359.50;36.72;;;6.60;99.90;;;;;;5027553;28;20056;-79
2022/12/21 06:17:25;;;;;;;340.60;37.42;;;6.60;99.90;;;;;;5030126;28;20029;-79
2022/12/21 06:19:51;;;;;;;308.23;36.13;;;6.60;99.90;;;;;;5035197;28;20037;-79
2022/12/21 06:22:16;;;;;;;329.38;38.13;;;6.60;99.90;;;;;;5034391;28;20181;-79
2022/12/21 06:24:42;;;;;;;350.52;38.65;;;6.60;99.90;;;;;;5036669;28;20039;-79
2022/12/21 06:27:07;;;;;;;394.95;44.70;;;6.60;99.90;;;;;;5035963;28;20036;-79
2022/12/21 06:29:33;;;;;;;258.17;36.63;;;6.50;99.90;;;;;;5036567;28;20049;-79
2022/12/21 06:31:59;;;;;;;355.83;42.90;;;6.60;99.90;;;;;;5034002;28;20371;-79
2022/12/21 06:34:25;;;;;;;343.50;43.85;;;6.60;99.90;;;;;;5033452;28;20045;-79
2022/12/21 06:36:50;;;;;;;230.52;35.95;;;6.60;99.90;;;;;;5050494;28;20467;-79
2022/12/21 06:39:16;;;;;;;312.15;42.65;;;6.60;99.90;;;;;;5036663;28;20039;-79
2022/12/21 06:41:42;;;;;;;292.27;43.97;;;6.60;99.90;;;;;;5036798;28;20037;-79
2022/12/21 06:44:08;;;;;;;380.95;47.30;;;6.60;99.90;;;;;;5037156;28;20029;-79
2022/12/21 06:46:34;;;;;;;292.75;41.60;;;6.60;99.90;;;;;;5050589;28;20069;-79
2022/12/21 06:49:00;;;;;;;339.23;44.90;;;6.60;99.90;;;;;;5029870;28;20692;-79
2022/12/21 06:51:44;;;;;;;313.92;43.55;;;6.60;99.90;;;;;;5063041;28;20043;-79
2022/12/21 06:54:12;;;;;;;307.08;43.33;;;6.60;99.90;;;;;;5032892;28;20041;-79
2022/12/21 06:56:38;;;;;;;381.08;47.85;;;6.60;99.90;;;;;;5037611;28;20032;-79
2022/12/21 06:59:03;;;;;;;333.80;45.28;;;6.60;99.90;;;;;;5055031;28;20406;-79
2022/12/21 07:01:32;;;;;;;223.02;40.15;;;6.60;99.90;;;;;;5035810;28;20036;-79
2022/12/21 07:03:59;;;;;;;379.98;48.05;;;6.60;99.90;;;;;;5054305;28;20037;-79
2022/12/21 07:06:27;;;;;;;377.35;49.33;;;6.60;99.90;;;;;;5038166;28;20483;-79
2022/12/21 07:08:53;;;;;;;280.73;41.78;;;6.50;99.90;;;;;;5055266;28;20044;-79
2022/12/21 07:11:22;;;;;;;255.65;41.13;;;6.50;99.90;;;;;;5038557;28;20492;-78
2022/12/21 07:13:49;;;;;;;328.40;45.17;;;6.50;99.90;;;;;;5050183;28;20082;-77
2022/12/21 07:16:15;;;;;;;433.55;52.00;;;6.50;99.90;;;;;;5049285;28;20033;-77
2022/12/21 07:18:42;;;;;;;323.80;47.20;;;6.50;99.90;;;;;;5065718;28;20037;-79
2022/12/21 07:21:11;;;;;;;439.05;51.13;;;6.50;99.90;;;;;;5035875;28;20067;-77
2022/12/21 07:23:38;;;;;;;460.27;52.78;;;6.40;99.90;;;;;;5036749;28;20063;-77
2022/12/21 07:26:08;;;;;;;381.80;46.88;;;6.40;99.90;;;;;;5029191;28;20394;-77
2022/12/21 07:28:34;;;;;;;371.17;47.20;;;6.40;99.90;;;;;;5055605;28;20490;-77
2022/12/21 07:31:09;;;;;;;270.13;45.83;;;6.40;99.90;;;;;;5039341;28;20037;-77
2022/12/21 07:33:35;;;;;;;323.02;46.28;;;6.30;99.90;;;;;;5052396;28;20068;-77
2022/12/21 07:36:03;;;;;;;405.00;50.25;;;6.30;99.90;;;;;;5055397;28;20434;-78
2022/12/21 07:38:30;;;;;;;292.23;46.97;;;6.30;99.90;;;;;;5052699;28;20051;-78
2022/12/21 07:41:16;;;;;;;432.95;53.67;;;6.30;99.90;;;;;;5062483;28;20399;-79
2022/12/21 07:44:00;;;;;;;395.55;51.10;;;6.30;99.90;;;;;;5064078;28;20087;-78
2022/12/21 07:46:44;;;;;;;484.73;59.40;;;6.30;99.90;;;;;;5069008;28;20035;-79
2022/12/21 07:49:10;;;;;;;334.95;46.80;;;6.30;99.90;;;;;;5052909;28;20036;-78
2022/12/21 07:51:36;;;;;;;382.75;52.45;;;6.30;99.90;;;;;;5055291;28;20522;-78
2022/12/21 07:54:01;;;;;;;457.48;55.78;;;6.30;99.90;;;;;;5054734;28;20089;-78
2022/12/21 07:56:27;;;;;;;437.35;56.05;;;6.30;99.90;;;;;;5037073;28;20029;-78
2022/12/21 07:58:52;;;;;;;349.60;49.88;;;6.30;99.90;;;;;;5036315;28;20025;-78
2022/12/21 08:01:18;;;;;;;398.48;55.30;;;6.20;99.90;;;;;;5047780;28;20081;-77
2022/12/21 08:03:45;;;;;;;308.08;48.70;;;6.20;99.90;;;;;;5050725;28;20036;-78
2022/12/21 08:06:11;;;;;;;386.27;51.03;;;6.20;99.90;;;;;;5036998;28;20032;-78
2022/12/21 08:08:37;;;;;;;452.58;55.78;;;6.20;99.90;;;;;;5037092;28;20498;-78
2022/12/21 08:11:03;;;;;;;550.50;61.33;;;6.10;99.90;;;;;;5043357;28;20063;-78
2022/12/21 08:13:29;;;;;;;350.30;47.28;;;6.10;99.90;;;;;;5037831;28;20032;-78
2022/12/21 08:16:00;;;;;;;214.90;42.25;;;6.00;99.90;;;;;;5048895;28;20090;-80
2022/12/21 08:18:26;;;;;;;314.02;48.13;;;6.00;99.90;;;;;;5054295;28;20111;-78
2022/12/21 08:20:53;;;;;;;394.48;52.03;;;5.90;99.90;;;;;;5054649;28;20071;-78
2022/12/21 08:23:19;;;;;;;258.45;45.45;;;5.90;99.90;;;;;;5051894;28;20029;-80
2022/12/21 08:25:44;;;;;;;248.48;44.60;;;5.90;99.90;;;;;;5045777;28;20475;-79
2022/12/21 08:28:10;;;;;;;364.00;52.40;;;5.90;99.90;;;;;;5047014;28;20039;-80
2022/12/21 08:30:36;;;;;;;248.45;44.58;;;5.90;99.90;;;;;;5056041;28;20596;-79
2022/12/21 08:33:02;;;;;;;263.73;47.92;;;6.00;99.90;;;;;;5054606;28;20044;-78
2022/12/21 08:35:29;;;;;;;311.80;52.03;;;6.00;99.90;;;;;;5041508;28;20037;-80
2022/12/21 08:37:54;;;;;;;303.50;49.00;;;6.10;99.90;;;;;;5051476;28;20059;-79
2022/12/21 08:40:20;;;;;;;395.75;53.53;;;6.20;99.90;;;;;;5059571;28;20045;-79
2022/12/21 08:42:46;;;;;;;427.73;55.53;;;6.30;99.90;;;;;;5062047;28;20132;-79
2022/12/21 08:45:12;;;;;;;440.05;56.22;;;6.30;99.90;;;;;;5028216;28;20463;-78
2022/12/21 08:47:38;;;;;;;494.00;59.85;;;6.40;99.90;;;;;;5026658;28;20044;-78
2022/12/21 08:50:04;;;;;;;448.60;58.50;;;6.50;99.90;;;;;;5039920;28;20498;-79
2022/12/21 08:52:30;;;;;;;445.17;58.28;;;6.50;99.90;;;;;;5054565;28;20063;-79
2022/12/21 08:54:56;;;;;;;387.40;54.58;;;6.60;99.90;;;;;;5039033;28;20041;-80
2022/12/21 08:57:22;;;;;;;413.98;55.20;;;6.60;99.90;;;;;;5040953;28;20028;-79
2022/12/21 08:59:48;;;;;;;439.48;58.08;;;6.60;99.90;;;;;;5058250;28;20510;-79
2022/12/21 09:02:14;;;;;;;497.27;65.68;;;6.70;99.90;;;;;;5035489;28;20047;-81
2022/12/21 09:04:40;;;;;;;368.85;57.05;;;6.70;99.90;;;;;;5049783;28;20047;-76
2022/12/21 09:07:06;;;;;;;425.90;56.70;;;6.70;99.90;;;;;;5046852;28;20042;-78
2022/12/21 09:09:32;;;;;;;333.75;49.55;;;6.80;99.90;;;;;;5036427;28;20040;-77
2022/12/21 09:11:58;;;;;;;358.30;52.50;;;6.80;99.90;;;;;;5047883;28;20059;-78
2022/12/21 09:14:25;;;;;;;255.55;46.15;;;6.80;99.90;;;;;;5056849;28;20415;-78
2022/12/21 09:16:51;;;;;;;273.05;45.55;;;6.80;99.90;;;;;;5053414;28;20119;-79
2022/12/21 09:19:17;;;;;;;266.75;46.08;;;6.90;99.90;;;;;;5048410;28;20045;-78
2022/12/21 09:21:43;;;;;;;261.00;46.65;;;6.90;99.90;;;;;;5051921;28;20533;-79
2022/12/21 09:24:09;;;;;;;271.40;44.83;;;7.00;99.90;;;;;;5049636;28;20032;-78
2022/12/21 09:26:34;;;;;;;223.85;43.30;;;7.10;99.90;;;;;;5044141;28;20028;-78
2022/12/21 09:29:00;;;;;;;287.17;44.08;;;7.20;99.90;;;;;;5031056;28;20079;-80
2022/12/21 09:31:26;;;;;;;223.43;43.13;;;7.20;99.90;;;;;;5053472;28;20107;-80
2022/12/21 09:33:56;;;;;;;205.63;41.42;;;7.30;99.90;;;;;;5045993;28;20060;-80
2022/12/21 09:36:23;;;;;;;247.52;42.30;;;7.50;99.90;;;;;;5054160;28;20512;-80
2022/12/21 09:38:49;;;;;;;182.18;40.40;;;7.50;99.90;;;;;;5037834;28;20119;-80
2022/12/21 09:41:24;;;;;;;208.73;37.42;;;7.60;99.90;;;;;;5038328;28;20040;-80
2022/12/21 09:44:20;;;;;;;188.90;36.78;;;7.60;99.90;;;;;;5049725;28;20440;-80
2022/12/21 09:46:48;;;;;;;183.30;37.45;;;7.60;99.90;;;;;;5053737;28;20044;-81
2022/12/21 09:49:19;;;;;;;185.05;35.80;;;7.60;99.90;;;;;;5050994;28;20032;-80
2022/12/21 09:52:00;;;;;;;142.10;34.10;;;7.50;99.90;;;;;;5036965;28;20328;-81
2022/12/21 09:54:44;;;;;;;211.93;37.58;;;7.50;99.90;;;;;;5045457;28;20048;-81
2022/12/21 09:57:13;;;;;;;216.38;37.78;;;7.50;99.90;;;;;;5066067;28;20051;-81
2022/12/21 09:59:39;;;;;;;172.50;35.22;;;7.50;99.90;;;;;;5046134;28;20033;-81
2022/12/21 10:02:20;;;;;;;200.07;35.35;;;7.60;99.90;;;;;;5030953;28;20032;-81
2022/12/21 10:05:08;;;;;;;227.25;38.03;;;7.60;99.90;;;;;;5032155;28;20530;-81
2022/12/21 10:08:06;;;;;;;182.43;35.30;;;7.70;99.90;;;;;;5036181;28;20032;-82
2022/12/21 10:10:40;;;;;;;134.88;35.50;;;7.70;99.90;;;;;;5056325;28;20334;-81
2022/12/21 10:13:30;;;;;;;167.68;36.85;;;7.80;99.90;;;;;;5044918;28;20040;-81
2022/12/21 10:16:09;;;;;;;157.57;34.17;;;7.80;99.90;;;;;;5027536;28;20136;-82
2022/12/21 10:18:59;;;;;;;133.48;33.40;;;7.90;99.90;;;;;;5028716;28;20040;-81
2022/12/21 10:21:50;;;;;;;158.23;33.58;;;8.00;99.90;;;;;;5036720;28;20482;-81
2022/12/21 10:24:23;;;;;;;109.90;32.15;;;8.00;99.90;;;;;;5037590;28;20051;-79
2022/12/21 10:27:01;;;;;;;115.43;32.08;;;8.00;99.90;;;;;;5053980;28;20045;-79
2022/12/21 10:29:34;;;;;;;117.50;31.25;;;8.00;99.90;;;;;;5037982;28;20055;-79
2022/12/21 10:32:01;;;;;;;110.50;31.65;;;8.00;99.90;;;;;;5049790;28;20036;-79
2022/12/21 10:34:34;;;;;;;95.85;31.35;;;7.90;99.90;;;;;;5058046;28;20506;-80
2022/12/21 10:37:02;;;;;;;;;;;7.90;99.90;;;;;;5056182;28;20029;-81
2022/12/21 10:39:29;;;;;;;111.95;31.75;;;7.90;99.90;;;;;;5047333;28;19916;-81
2022/12/21 10:42:03;;;;;;;119.30;32.95;;;7.90;99.90;;;;;;5053195;28;20406;-82
2022/12/21 10:44:29;;;;;;;113.93;32.88;;;7.90;99.90;;;;;;5041316;28;20074;-81
2022/12/21 10:46:55;;;;;;;104.95;33.28;;;8.00;99.90;;;;;;5039880;28;20040;-81
2022/12/21 10:49:36;;;;;;;111.95;33.08;;;8.00;99.90;;;;;;5049660;28;20041;-82
2022/12/21 10:52:40;;;;;;;119.13;35.47;;;8.00;99.90;;;;;;5055551;28;20487;-82
2022/12/21 10:55:23;;;;;;;;;;;8.10;99.90;;;;;;5047639;28;20043;-82
2022/12/21 10:57:55;;;;;;;118.75;36.25;;;8.00;99.90;;;;;;5053202;28;19924;-81
2022/12/21 11:00:26;;;;;;;113.38;35.58;;;8.10;99.90;;;;;;5037284;28;20028;-81
2022/12/21 11:02:57;;;;;;;96.55;36.50;;;8.10;99.90;;;;;;5055226;28;20115;-82
2022/12/21 11:05:35;;;;;;;95.85;33.63;;;8.10;99.90;;;;;;5056375;28;20044;-83
2022/12/21 11:08:12;;;;;;;103.32;35.22;;;8.00;99.90;;;;;;5043693;28;20048;-82
2022/12/21 11:10:40;;;;;;;101.90;34.75;;;8.10;99.90;;;;;;5049296;28;20545;-82
2022/12/21 11:13:06;;;;;;;116.18;36.90;;;8.20;99.90;;;;;;5039210;28;20094;-82
2022/12/21 11:15:32;;;;;;;95.93;35.33;;;8.20;99.90;;;;;;5033606;28;20087;-82
2022/12/21 11:17:59;;;;;;;99.00;34.58;;;8.30;99.90;;;;;;5059075;28;20051;-82
2022/12/21 11:20:26;;;;;;;111.28;35.70;;;8.30;99.90;;;;;;5053341;28;20028;-80
2022/12/21 11:22:55;;;;;;;107.82;34.63;;;8.40;99.90;;;;;;5053841;28;20123;-81
2022/12/21 11:25:25;;;;;;;87.50;35.20;;;8.50;99.90;;;;;;5056127;28;20398;-81
2022/12/21 11:27:56;;;;;;;88.82;34.95;;;8.50;99.90;;;;;;5057368;28;20045;-81
2022/12/21 11:30:25;;;;;;;89.18;35.08;;;8.60;99.90;;;;;;5053350;28;20320;-81
2022/12/21 11:32:53;;;;;;;77.72;31.67;;;8.70;99.90;;;;;;5062024;28;20100;-82
2022/12/21 11:35:24;;;;;;;81.30;30.25;;;8.80;99.90;;;;;;5041769;28;20098;-81
2022/12/21 11:37:56;;;;;;;75.28;29.85;;;8.80;99.90;;;;;;5057178;28;20090;-81
2022/12/21 11:40:27;;;;;;;80.10;29.90;;;8.90;99.90;;;;;;5051034;28;20082;-81
2022/12/21 11:43:02;;;;;;;82.32;31.02;;;9.10;99.90;;;;;;5035373;28;20033;-81
2022/12/21 11:46:04;;;;;;;73.28;29.38;;;9.20;99.90;;;;;;5040276;28;20044;-81
2022/12/21 11:48:42;;;;;;;65.18;28.55;;;9.40;99.90;;;;;;5037156;28;20048;-81
2022/12/21 11:51:29;;;;;;;61.67;27.15;;;9.50;99.90;;;;;;5046282;28;20636;-81
2022/12/21 11:54:32;;;;;;;64.03;26.50;;;9.60;99.90;;;;;;5046321;28;20087;-80
2022/12/21 11:57:00;;;;;;;59.40;25.50;;;9.80;99.90;;;;;;5032968;28;20037;-82
2022/12/21 11:59:59;;;;;;;55.10;24.90;;;9.60;99.90;;;;;;5039754;28;20052;-81
2022/12/21 12:02:59;;;;;;;55.45;24.15;;;9.70;99.90;;;;;;5036008;28;20123;-81
2022/12/21 12:05:37;;;;;;;58.53;23.08;;;9.70;99.90;;;;;;5056859;28;20032;-80
2022/12/21 12:08:21;;;;;;;43.55;21.00;;;9.50;99.90;;;;;;5035103;28;20068;-82
2022/12/21 12:10:55;;;;;;;41.72;22.63;;;9.30;99.90;;;;;;5057250;28;20048;-81
2022/12/21 12:13:47;;;;;;;41.95;21.80;;;9.20;99.90;;;;;;5056669;28;20041;-81
2022/12/21 12:16:25;;;;;;;42.97;20.58;;;9.00;99.90;;;;;;5039412;28;20098;-80
2022/12/21 12:19:18;;;;;;;37.55;21.13;;;8.90;99.90;;;;;;5050764;28;20036;-81
2022/12/21 12:21:56;;;;;;;34.22;21.38;;;8.90;99.90;;;;;;5041228;28;20036;-83
2022/12/21 12:25:06;;;;;;;34.95;21.33;;;8.80;99.90;;;;;;5038382;28;20041;-83
2022/12/21 12:28:02;;;;;;;35.97;21.35;;;8.80;99.90;;;;;;5029252;28;20041;-83
2022/12/21 12:31:11;;;;;;;39.35;22.42;;;8.70;99.90;;;;;;5038941;28;20044;-83
2022/12/21 12:33:48;;;;;;;37.70;21.92;;;8.60;99.90;;;;;;5041660;28;20048;-82
2022/12/21 12:36:30;;;;;;;42.92;23.90;;;8.50;99.90;;;;;;5050972;28;20043;-82
2022/12/21 12:39:17;;;;;;;34.22;22.42;;;8.60;99.90;;;;;;5035782;28;20043;-83
2022/12/21 12:41:55;;;;;;;36.67;23.27;;;8.70;99.90;;;;;;5054670;28;20039;-82
2022/12/21 12:44:41;;;;;;;34.95;23.20;;;8.80;99.90;;;;;;5040577;28;20498;-82
2022/12/21 12:47:22;;;;;;;40.15;23.92;;;8.80;99.90;;;;;;5049308;28;20033;-82
2022/12/21 12:50:14;;;;;;;47.65;25.38;;;8.80;99.90;;;;;;5053174;28;20051;-81
2022/12/21 12:53:00;;;;;;;38.95;25.27;;;8.70;99.90;;;;;;5037076;28;20166;-82
2022/12/21 12:55:44;;;;;;;37.50;24.80;;;8.60;99.90;;;;;;5039205;28;20411;-82
2022/12/21 12:58:39;;;;;;;36.22;25.45;;;8.60;99.90;;;;;;5029836;28;20029;-81
2022/12/21 13:01:13;;;;;;;32.63;24.38;;;8.60;99.90;;;;;;5048703;28;20037;-82
2022/12/21 13:03:53;;;;;;;41.05;26.30;;;8.60;99.90;;;;;;5028681;28;20036;-83